Hales Corners, WI (53130)

1:19 AM CST on December 08, 2016 (GMT -0600)
Mission Hills | | Change Station

Elev 794 ft 42.90 °N, 88.05 °W | Updated 6 minutes ago

Snow
Snow
21.9 °F
Feels Like 14 °F
N
6.0
Wind Variable Wind from SSW

Today
High -- | Low -- °F
--% Chance of Precip.
Yesterday
High -- | Low -- °F
Precip. -- in
Pressure 30.12 in
Visibility 8.0 miles
Clouds Overcast 2500 ft
Windchill 14 °F
Dew Point 13 °F
Humidity 70%
Rainfall 0.00 in
Snow Depth Not available.
7:11 AM 4:17 PM
First Quarter, 60% visible
METAR KMKE 080652Z 27008KT 8SM -SN OVC025 M04/M11 A3008 RMK AO2 SLP198 P0000 T10441106
Pressure 30.12 in
Visibility 8.0 miles
Clouds Overcast 2500 ft
Windchill 14 °F
Dew Point 13 °F
Humidity 70%
Rainfall 0.00 in
Snow Depth Not available.
7:11 AM 4:17 PM
First Quarter, 60% visible
METAR KMKE 080652Z 27008KT 8SM -SN OVC025 M04/M11 A3008 RMK AO2 SLP198 P0000 T10441106

10-Day Weather Forecast

Almanac

Astronomy

Dec. 08, 2016 Rise Set
Actual Time
Civil Twilight
Nautical Twilight
Astronomical Twilight
Moon
Length of Visible Light
Length of Day
Tomorrow will be .
, % of the Moon is Illuminated

Today's Extremes

State Highs State Lows

Community

WunderPhotos

Upload Photos

1,956,259 photos uploaded!

WunderBlog® & News

Nearby

Air Quality

  Air Quality AQ Index Pollutant
Not available.

Snow Depth

Station Depth Elevation

Earthquake Activity

City Distance Mag. Time & Date
Minimum magnitude displayed is 2.5.

Coastal Water Temperatures

Place Temperature

Stations

Nearby Weather Stations

Station Location Temp. Windchill Dew Point Humidity Wind Precip. Elev Updated Type
                   

Watches & Warnings

There are currently no watches in effect.